createdAt,value
2022-10-30T00:00:08.057Z,91861.22
2022-10-30T00:02:34.390Z,91866.84
2022-10-30T00:05:00.703Z,91868.50
2022-10-30T00:07:26.970Z,91864.81
2022-10-30T00:09:53.232Z,91870.47
2022-10-30T00:12:19.511Z,91866.13
2022-10-30T00:14:45.806Z,91867.66
2022-10-30T00:17:12.090Z,91864.72
2022-10-30T00:19:38.375Z,91855.84
2022-10-30T00:24:29.975Z,91867.25
2022-10-30T00:26:56.246Z,91858.56
2022-10-30T00:29:24.981Z,91856.44
2022-10-30T00:31:51.276Z,91856.44
2022-10-30T00:34:17.551Z,91849.00
2022-10-30T00:36:43.880Z,91853.50
2022-10-30T00:39:10.157Z,91854.06
2022-10-30T00:41:39.304Z,91847.88
2022-10-30T00:44:24.120Z,91851.53
2022-10-30T00:46:50.389Z,91843.09
2022-10-30T00:49:16.678Z,91847.28
2022-10-30T00:51:43.398Z,91849.41
2022-10-30T00:54:10.447Z,91849.09
2022-10-30T00:56:36.734Z,91846.06
2022-10-30T00:59:04.605Z,91845.75
2022-10-30T01:01:32.235Z,91851.81
2022-10-30T01:03:59.019Z,91846.59
2022-10-30T01:06:25.366Z,91846.88
2022-10-30T01:08:56.890Z,91840.00
2022-10-30T01:11:26.249Z,91833.25
2022-10-30T01:13:52.581Z,91839.59
2022-10-30T01:16:30.991Z,91839.00
2022-10-30T01:19:00.247Z,91835.78
2022-10-30T01:21:26.463Z,91833.66
2022-10-30T01:23:55.786Z,91828.88
2022-10-30T01:26:25.086Z,91831.16
2022-10-30T01:29:06.702Z,91826.06
2022-10-30T01:31:45.800Z,91824.09
2022-10-30T01:34:22.126Z,91824.25
2022-10-30T01:36:59.708Z,91826.09
2022-10-30T01:39:35.763Z,91827.50
2022-10-30T01:42:08.769Z,91823.13
2022-10-30T01:44:35.036Z,91834.09
2022-10-30T01:47:04.042Z,91826.78
2022-10-30T01:49:33.328Z,91820.59
2022-10-30T01:52:18.515Z,91824.97
2022-10-30T01:55:00.104Z,91817.66
2022-10-30T01:57:29.576Z,91813.47
2022-10-30T02:00:12.046Z,91809.78
2022-10-30T02:02:38.357Z,91816.09
2022-10-30T02:05:05.092Z,91807.66
2022-10-30T02:07:31.379Z,91819.59
2022-10-30T02:09:57.656Z,91814.31
2022-10-30T02:12:23.993Z,91812.59
2022-10-30T02:14:50.863Z,91805.69
2022-10-30T02:17:17.160Z,91807.53
2022-10-30T02:19:43.448Z,91800.38
2022-10-30T02:22:09.818Z,91805.56
2022-10-30T02:24:36.220Z,91796.28
2022-10-30T02:27:02.572Z,91802.47
2022-10-30T02:29:29.012Z,91804.47
2022-10-30T02:31:55.340Z,91798.84
2022-10-30T02:34:21.605Z,91801.50
2022-10-30T02:36:47.914Z,91792.22
2022-10-30T02:39:14.237Z,91788.31
2022-10-30T02:41:40.573Z,91789.44
2022-10-30T02:44:06.859Z,91791.09
2022-10-30T02:46:33.509Z,91785.63
2022-10-30T02:48:59.781Z,91782.81
2022-10-30T02:51:26.044Z,91788.69
2022-10-30T02:53:52.321Z,91788.28
2022-10-30T02:56:18.627Z,91778.75
2022-10-30T02:58:44.909Z,91783.94
2022-10-30T03:01:12.002Z,91785.06
2022-10-30T03:03:38.303Z,91778.88
2022-10-30T03:06:04.898Z,91783.25
2022-10-30T03:08:31.211Z,91781.13
2022-10-30T03:11:07.350Z,91779.56
2022-10-30T03:13:33.959Z,91775.63
2022-10-30T03:16:02.609Z,91777.75
2022-10-30T03:18:28.916Z,91780.97
2022-10-30T03:20:59.027Z,91775.94
2022-10-30T03:23:25.432Z,91779.16
2022-10-30T03:25:52.311Z,91778.72
2022-10-30T03:28:18.615Z,91780.84
2022-10-30T03:30:44.877Z,91785.88
2022-10-30T03:33:11.136Z,91788.72
2022-10-30T03:35:37.422Z,91787.75
2022-10-30T03:38:03.694Z,91781.28
2022-10-30T03:40:29.991Z,91788.28
2022-10-30T03:42:56.596Z,91790.53
2022-10-30T03:45:23.116Z,91786.75
2022-10-30T03:47:49.385Z,91795.72
2022-10-30T03:50:15.662Z,91789.00
2022-10-30T03:52:41.926Z,91790.53
2022-10-30T03:55:08.419Z,91790.09
2022-10-30T03:57:37.724Z,91789.56
2022-10-30T04:00:04.390Z,91783.66
2022-10-30T04:02:30.690Z,91787.88
2022-10-30T04:04:56.956Z,91788.88
2022-10-30T04:07:23.283Z,91794.06
2022-10-30T04:09:49.557Z,91785.34
2022-10-30T04:12:15.958Z,91784.78
2022-10-30T04:14:42.229Z,91784.22
2022-10-30T04:19:39.689Z,91787.31
2022-10-30T04:22:05.966Z,91784.91
2022-10-30T04:24:32.279Z,91784.63
2022-10-30T04:26:58.906Z,91786.31
2022-10-30T04:29:25.227Z,91789.25
2022-10-30T04:31:51.541Z,91787.31
2022-10-30T04:34:17.872Z,91788.28
2022-10-30T04:36:44.129Z,91785.47
2022-10-30T04:39:10.447Z,91784.66
2022-10-30T04:41:36.760Z,91781.00
2022-10-30T04:44:03.394Z,91780.44
2022-10-30T04:46:29.678Z,91784.78
2022-10-30T04:48:57.231Z,91784.75
2022-10-30T04:51:23.961Z,91780.94
2022-10-30T04:53:50.239Z,91782.81
2022-10-30T04:56:16.810Z,91782.91
2022-10-30T04:58:43.167Z,91780.72
2022-10-30T05:01:09.556Z,91778.88
2022-10-30T05:03:35.865Z,91770.88
2022-10-30T05:06:02.869Z,91775.78
2022-10-30T05:08:29.298Z,91776.06
2022-10-30T05:10:55.671Z,91775.09
2022-10-30T05:13:21.952Z,91774.53
2022-10-30T05:15:48.222Z,91775.63
2022-10-30T05:18:14.490Z,91776.19
2022-10-30T05:20:40.796Z,91772.59
2022-10-30T05:23:07.052Z,91764.56
2022-10-30T05:25:33.342Z,91770.59
2022-10-30T05:28:03.415Z,91768.19
2022-10-30T05:30:30.694Z,91763.28
2022-10-30T05:33:06.011Z,91763.84
2022-10-30T05:35:32.747Z,91762.31
2022-10-30T05:37:59.527Z,91759.19
2022-10-30T05:40:25.813Z,91766.38
2022-10-30T05:42:52.138Z,91759.78
2022-10-30T05:45:18.435Z,91753.59
2022-10-30T05:47:44.703Z,91759.78
2022-10-30T05:50:12.282Z,91754.59
2022-10-30T05:52:38.556Z,91750.78
2022-10-30T05:55:04.991Z,91751.78
2022-10-30T05:57:33.064Z,91758.63
2022-10-30T05:59:59.379Z,91769.63
2022-10-30T06:02:25.701Z,91762.28
2022-10-30T06:04:51.968Z,91768.06
2022-10-30T06:07:18.260Z,91762.56
2022-10-30T06:09:44.516Z,91764.13
2022-10-30T06:12:10.793Z,91761.31
2022-10-30T06:14:37.131Z,91765.25
2022-10-30T06:17:03.413Z,91765.97
2022-10-30T06:19:29.685Z,91763.84
2022-10-30T06:21:56.007Z,91754.44
2022-10-30T06:24:22.295Z,91766.63
2022-10-30T06:26:49.452Z,91766.38
2022-10-30T06:29:15.728Z,91762.59
2022-10-30T06:31:42.037Z,91765.94
2022-10-30T06:34:08.323Z,91764.81
2022-10-30T06:36:34.654Z,91765.66
2022-10-30T06:39:00.971Z,91767.50
2022-10-30T06:41:30.270Z,91766.25
2022-10-30T06:43:57.340Z,91766.66
2022-10-30T06:46:26.916Z,91767.81
2022-10-30T06:48:56.987Z,91769.19
2022-10-30T06:51:23.321Z,91771.44
2022-10-30T06:53:49.597Z,91767.34
2022-10-30T06:56:15.860Z,91769.63
2022-10-30T06:58:43.061Z,91776.75
2022-10-30T07:01:09.358Z,91774.25
2022-10-30T07:03:35.669Z,91777.19
2022-10-30T07:06:02.257Z,91777.06
2022-10-30T07:08:28.575Z,91782.94
2022-10-30T07:10:56.146Z,91779.81
2022-10-30T07:13:22.429Z,91774.19
2022-10-30T07:15:48.715Z,91777.34
2022-10-30T07:18:14.979Z,91779.16
2022-10-30T07:20:41.246Z,91779.38
2022-10-30T07:23:07.534Z,91791.94
2022-10-30T07:25:33.819Z,91783.63
2022-10-30T07:28:02.011Z,91769.84
2022-10-30T07:30:28.759Z,91785.75
2022-10-30T07:33:02.314Z,91789.47
2022-10-30T07:35:29.185Z,91797.91
2022-10-30T07:37:55.491Z,91802.34
2022-10-30T07:40:21.862Z,91792.19
2022-10-30T07:42:48.152Z,91794.81
2022-10-30T07:45:14.499Z,91794.53
2022-10-30T07:47:41.245Z,91797.97
2022-10-30T07:50:07.767Z,91806.81
2022-10-30T07:52:34.100Z,91803.25
2022-10-30T07:55:00.365Z,91794.66
2022-10-30T07:57:26.631Z,91809.38
2022-10-30T07:59:54.314Z,91802.06
2022-10-30T08:02:22.440Z,91799.06
2022-10-30T08:04:48.794Z,91803.69
2022-10-30T08:07:15.059Z,91802.94
2022-10-30T08:09:41.329Z,91809.25
2022-10-30T08:12:07.673Z,91799.28
2022-10-30T08:14:34.841Z,91801.72
2022-10-30T08:17:01.122Z,91796.34
2022-10-30T08:19:27.408Z,91812.09
2022-10-30T08:21:56.134Z,91801.53
2022-10-30T08:24:25.501Z,91803.38
2022-10-30T08:26:54.806Z,91799.56
2022-10-30T08:29:21.073Z,91808.91
2022-10-30T08:31:50.552Z,91796.56
2022-10-30T08:34:16.846Z,91797.66
2022-10-30T08:36:46.761Z,91799.63
2022-10-30T08:39:15.998Z,91802.25
2022-10-30T08:41:42.298Z,91798.78
2022-10-30T08:44:08.564Z,91792.47
2022-10-30T08:46:34.848Z,91792.50
2022-10-30T08:49:01.182Z,91797.28
2022-10-30T08:51:27.459Z,91785.72
2022-10-30T08:53:53.732Z,91789.44
2022-10-30T08:56:20.089Z,91792.97
2022-10-30T08:58:46.414Z,91789.34
2022-10-30T09:01:12.764Z,91784.69
2022-10-30T09:03:39.690Z,91790.88
2022-10-30T09:06:06.035Z,91787.69
2022-10-30T09:08:32.313Z,91783.19
2022-10-30T09:10:58.865Z,91785.19
2022-10-30T09:13:25.394Z,91780.66
2022-10-30T09:15:51.707Z,91779.69
2022-10-30T09:18:18.025Z,91772.28
2022-10-30T09:20:44.310Z,91765.03
2022-10-30T09:23:10.582Z,91771.09
2022-10-30T09:25:36.867Z,91771.81
2022-10-30T09:28:03.138Z,91772.38
2022-10-30T09:30:29.483Z,91771.69
2022-10-30T09:32:59.956Z,91765.63
2022-10-30T09:35:26.637Z,91768.91
2022-10-30T09:37:52.967Z,91763.19
2022-10-30T09:40:41.740Z,91763.38
2022-10-30T09:43:28.290Z,91764.94
2022-10-30T09:46:14.803Z,91760.59
2022-10-30T09:48:43.895Z,91761.66
2022-10-30T09:51:22.291Z,91767.34
2022-10-30T09:54:08.989Z,91765.69
2022-10-30T09:56:40.115Z,91766.38
2022-10-30T09:59:08.680Z,91767.59
2022-10-30T10:01:44.199Z,91765.31
2022-10-30T10:04:27.444Z,91773.22
2022-10-30T10:07:00.116Z,91765.53
2022-10-30T10:09:26.526Z,91769.09
2022-10-30T10:11:54.534Z,91759.63
2022-10-30T10:14:30.964Z,91762.50
2022-10-30T10:16:57.997Z,91768.38
2022-10-30T10:19:24.245Z,91761.25
2022-10-30T10:21:53.608Z,91758.84
2022-10-30T10:24:21.085Z,91760.34
2022-10-30T10:26:48.793Z,91762.91
2022-10-30T10:29:33.999Z,91759.97
2022-10-30T10:32:03.359Z,91749.88
2022-10-30T10:34:40.074Z,91743.00
2022-10-30T10:37:09.711Z,91742.66
2022-10-30T10:39:40.085Z,91748.84
2022-10-30T10:42:26.620Z,91749.16
2022-10-30T10:45:02.049Z,91736.53
2022-10-30T10:47:47.080Z,91736.53
2022-10-30T10:50:30.447Z,91733.03
2022-10-30T10:52:59.132Z,91734.66
2022-10-30T10:55:27.259Z,91725.41
2022-10-30T10:57:53.607Z,91723.22
2022-10-30T11:00:20.715Z,91717.56
2022-10-30T11:03:07.392Z,91714.22
2022-10-30T11:05:39.891Z,91709.84
2022-10-30T11:08:09.287Z,91706.94
2022-10-30T11:10:35.566Z,91705.22
2022-10-30T11:13:02.080Z,91703.53
2022-10-30T11:15:34.602Z,91706.66
2022-10-30T11:20:37.472Z,91693.22
2022-10-30T11:23:03.788Z,91690.03
2022-10-30T11:25:33.764Z,91688.53
2022-10-30T11:28:00.409Z,91686.03
2022-10-30T11:30:28.482Z,91693.91
2022-10-30T11:32:57.107Z,91693.53
2022-10-30T11:35:23.907Z,91695.03
2022-10-30T11:37:50.808Z,91687.78
2022-10-30T11:40:18.350Z,91694.34
2022-10-30T11:42:56.698Z,91696.44
2022-10-30T11:45:26.268Z,91688.00
2022-10-30T11:47:52.964Z,91686.22
2022-10-30T11:50:19.500Z,91675.84
2022-10-30T11:52:45.913Z,91682.38
2022-10-30T11:55:16.830Z,91671.53
2022-10-30T11:57:43.621Z,91673.41
2022-10-30T12:00:28.324Z,91668.44
2022-10-30T12:02:56.552Z,91675.41
2022-10-30T12:05:44.870Z,91667.34
2022-10-30T12:08:14.664Z,91665.69
2022-10-30T12:10:45.746Z,91674.16
2022-10-30T12:13:15.630Z,91671.22
2022-10-30T12:15:41.993Z,91663.59
2022-10-30T12:18:08.735Z,91662.41
2022-10-30T12:20:38.132Z,91659.31
2022-10-30T12:23:10.874Z,91657.41
2022-10-30T12:25:37.156Z,91651.56
2022-10-30T12:28:06.944Z,91647.84
2022-10-30T12:30:37.720Z,91649.16
2022-10-30T12:33:17.241Z,91651.94
2022-10-30T12:35:55.611Z,91642.88
2022-10-30T12:38:24.044Z,91640.19
2022-10-30T12:40:56.366Z,91638.06
2022-10-30T12:43:29.047Z,91630.09
2022-10-30T12:46:13.978Z,91634.56
2022-10-30T12:48:50.650Z,91636.19
2022-10-30T12:51:19.786Z,91633.38
2022-10-30T12:53:53.007Z,91622.38
2022-10-30T12:56:22.941Z,91625.47
2022-10-30T12:58:50.648Z,91625.88
2022-10-30T13:01:26.624Z,91618.28
2022-10-30T13:03:56.019Z,91619.56
2022-10-30T13:06:26.402Z,91608.41
2022-10-30T13:08:58.684Z,91611.78
2022-10-30T13:11:43.753Z,91603.69
2022-10-30T13:14:11.819Z,91594.63
2022-10-30T13:16:38.124Z,91594.78
2022-10-30T13:19:05.532Z,91595.59
2022-10-30T13:24:21.521Z,91594.53
2022-10-30T13:26:57.310Z,91590.13
2022-10-30T13:29:31.883Z,91592.03
2022-10-30T13:32:12.918Z,91589.94
2022-10-30T13:34:40.724Z,91587.97
2022-10-30T13:37:25.299Z,91588.91
2022-10-30T13:40:00.568Z,91581.50
2022-10-30T13:42:45.411Z,91581.88
2022-10-30T13:45:30.090Z,91591.47
2022-10-30T13:48:15.101Z,91582.22
2022-10-30T13:51:00.275Z,91581.25
2022-10-30T13:53:26.938Z,91581.56
2022-10-30T13:55:53.214Z,91582.38
2022-10-30T13:58:22.463Z,91582.59
2022-10-30T14:00:58.006Z,91583.41
2022-10-30T14:03:27.426Z,91583.81
2022-10-30T14:05:55.777Z,91579.75
2022-10-30T14:11:03.616Z,91569.06
2022-10-30T14:13:44.153Z,91572.34
2022-10-30T14:16:30.241Z,91568.97
2022-10-30T14:19:01.061Z,91570.66
2022-10-30T14:21:36.612Z,91575.03
2022-10-30T14:24:03.795Z,91565.94
2022-10-30T14:26:30.066Z,91560.50
2022-10-30T14:28:56.784Z,91555.41
2022-10-30T14:31:33.652Z,91558.19
2022-10-30T14:34:00.487Z,91557.31
2022-10-30T14:36:26.755Z,91556.06
2022-10-30T14:38:53.830Z,91558.19
2022-10-30T14:41:27.719Z,91558.19
2022-10-30T14:44:05.016Z,91556.47
2022-10-30T14:46:31.251Z,91556.66
2022-10-30T14:48:59.839Z,91555.66
2022-10-30T14:51:30.289Z,91557.97
2022-10-30T14:54:08.056Z,91551.72
2022-10-30T14:56:36.475Z,91558.38
2022-10-30T14:59:10.079Z,91553.00
2022-10-30T15:01:52.730Z,91547.81
2022-10-30T15:04:24.197Z,91555.25
2022-10-30T15:07:16.857Z,91556.78
2022-10-30T15:09:43.075Z,91549.47
2022-10-30T15:14:56.383Z,91542.34
2022-10-30T15:17:30.397Z,91552.41
2022-10-30T15:19:56.744Z,91558.53
2022-10-30T15:22:23.061Z,91558.56
2022-10-30T15:24:49.935Z,91562.06
2022-10-30T15:27:17.308Z,91557.41
2022-10-30T15:29:44.391Z,91561.44
2022-10-30T15:32:17.798Z,91556.66
2022-10-30T15:34:56.447Z,91558.72
2022-10-30T15:37:22.759Z,91558.19
2022-10-30T15:39:49.045Z,91560.78
2022-10-30T15:42:15.316Z,91561.38
2022-10-30T15:44:42.463Z,91567.50
2022-10-30T15:47:15.959Z,91555.53
2022-10-30T15:49:46.177Z,91561.28
2022-10-30T15:52:16.698Z,91562.19
2022-10-30T15:54:43.854Z,91565.00
2022-10-30T15:57:49.492Z,91570.56
2022-10-30T16:00:07.921Z,91581.97
2022-10-30T16:02:34.439Z,91573.59
2022-10-30T16:05:00.784Z,91568.59
2022-10-30T16:07:27.480Z,91577.34
2022-10-30T16:09:57.939Z,91575.16
2022-10-30T16:12:24.937Z,91577.69
2022-10-30T16:14:51.211Z,91582.50
2022-10-30T16:17:17.581Z,91582.72
2022-10-30T16:19:48.134Z,91574.47
2022-10-30T16:22:14.932Z,91583.59
2022-10-30T16:24:41.229Z,91588.81
2022-10-30T16:27:13.777Z,91594.41
2022-10-30T16:29:40.054Z,91591.84
2022-10-30T16:32:15.895Z,91592.78
2022-10-30T16:34:42.263Z,91596.38
2022-10-30T16:37:14.223Z,91601.88
2022-10-30T16:39:40.517Z,91591.16
2022-10-30T16:42:06.784Z,91600.13
2022-10-30T16:44:33.748Z,91598.34
2022-10-30T16:46:59.993Z,91597.63
2022-10-30T16:49:27.118Z,91601.88
2022-10-30T16:51:56.235Z,91600.22
2022-10-30T16:54:31.594Z,91605.44
2022-10-30T16:56:58.342Z,91609.78
2022-10-30T16:59:25.818Z,91606.03
2022-10-30T17:01:53.058Z,91610.31
2022-10-30T17:04:19.523Z,91614.16
2022-10-30T17:06:45.917Z,91613.97
2022-10-30T17:09:22.487Z,91610.66
2022-10-30T17:12:00.212Z,91620.06
2022-10-30T17:14:26.483Z,91615.97
2022-10-30T17:16:54.043Z,91622.97
2022-10-30T17:19:32.292Z,91620.78
2022-10-30T17:21:59.210Z,91624.94
2022-10-30T17:24:27.725Z,91636.09
2022-10-30T17:26:54.519Z,91632.59
2022-10-30T17:29:39.641Z,91635.53
2022-10-30T17:32:06.477Z,91643.81
2022-10-30T17:34:38.930Z,91645.28
2022-10-30T17:37:05.220Z,91648.94
2022-10-30T17:39:31.490Z,91647.53
2022-10-30T17:41:57.771Z,91663.06
2022-10-30T17:44:24.409Z,91658.47
2022-10-30T17:46:54.543Z,91673.53
2022-10-30T17:49:28.114Z,91668.22
2022-10-30T17:51:54.471Z,91666.59
2022-10-30T17:54:20.745Z,91675.31
2022-10-30T17:56:47.053Z,91678.75
2022-10-30T17:59:13.330Z,91679.03
2022-10-30T18:01:39.693Z,91686.25
2022-10-30T18:04:08.760Z,91686.13
2022-10-30T18:06:35.042Z,91694.44
2022-10-30T18:09:01.320Z,91688.94
2022-10-30T18:11:28.712Z,91693.13
2022-10-30T18:13:55.573Z,91692.53
2022-10-30T18:16:21.866Z,91696.25
2022-10-30T18:18:48.319Z,91699.88
2022-10-30T18:21:15.164Z,91707.22
2022-10-30T18:23:56.686Z,91703.63
2022-10-30T18:26:26.233Z,91712.56
2022-10-30T18:28:52.510Z,91709.56
2022-10-30T18:31:20.854Z,91707.59
2022-10-30T18:33:47.261Z,91708.91
2022-10-30T18:36:17.413Z,91707.72
2022-10-30T18:38:43.705Z,91719.25
2022-10-30T18:41:11.795Z,91714.94
2022-10-30T18:43:40.264Z,91715.09
2022-10-30T18:46:10.315Z,91707.56
2022-10-30T18:48:36.699Z,91716.25
2022-10-30T18:51:03.728Z,91711.91
2022-10-30T18:53:34.300Z,91713.06
2022-10-30T18:56:01.543Z,91710.00
2022-10-30T18:58:27.822Z,91710.72
2022-10-30T19:03:40.526Z,91712.81
2022-10-30T19:06:09.691Z,91714.31
2022-10-30T19:08:35.949Z,91714.75
2022-10-30T19:11:02.226Z,91724.03
2022-10-30T19:13:28.543Z,91721.31
2022-10-30T19:16:00.197Z,91723.66
2022-10-30T19:18:28.308Z,91720.41
2022-10-30T19:21:15.388Z,91726.72
2022-10-30T19:23:40.917Z,91725.44
2022-10-30T19:26:07.276Z,91716.25
2022-10-30T19:28:33.569Z,91717.75
2022-10-30T19:30:59.837Z,91714.00
2022-10-30T19:33:26.116Z,91721.72
2022-10-30T19:35:55.605Z,91722.53
2022-10-30T19:38:21.916Z,91720.88
2022-10-30T19:40:48.177Z,91727.25
2022-10-30T19:43:14.469Z,91720.88
2022-10-30T19:45:40.783Z,91722.50
2022-10-30T19:48:11.430Z,91721.63
2022-10-30T19:50:38.068Z,91723.72
2022-10-30T19:53:04.617Z,91720.91
2022-10-30T19:55:31.272Z,91727.38
2022-10-30T19:57:58.055Z,91732.16
2022-10-30T20:00:28.591Z,91736.03
2022-10-30T20:02:55.259Z,91727.13
2022-10-30T20:05:25.415Z,91729.50
2022-10-30T20:07:59.390Z,91725.72
2022-10-30T20:10:26.038Z,91729.94
2022-10-30T20:12:52.323Z,91732.47
2022-10-30T20:15:19.516Z,91725.34
2022-10-30T20:17:46.179Z,91730.25
2022-10-30T20:20:13.178Z,91725.06
2022-10-30T20:22:39.464Z,91726.06
2022-10-30T20:25:05.788Z,91728.31
2022-10-30T20:27:32.048Z,91736.72
2022-10-30T20:29:58.325Z,91731.38
2022-10-30T20:32:24.622Z,91734.34
2022-10-30T20:34:50.893Z,91739.38
2022-10-30T20:37:17.183Z,91741.50
2022-10-30T20:39:43.489Z,91736.75
2022-10-30T20:42:10.375Z,91737.72
2022-10-30T20:44:36.638Z,91736.03
2022-10-30T20:47:02.909Z,91741.63
2022-10-30T20:49:29.170Z,91738.97
2022-10-30T20:51:55.444Z,91745.00
2022-10-30T20:54:21.710Z,91749.38
2022-10-30T20:56:47.995Z,91740.38
2022-10-30T20:59:14.256Z,91755.44
2022-10-30T21:01:40.592Z,91751.91
2022-10-30T21:04:06.973Z,91746.00
2022-10-30T21:06:33.246Z,91749.50
2022-10-30T21:08:59.514Z,91748.94
2022-10-30T21:11:25.812Z,91750.91
2022-10-30T21:13:56.253Z,91758.50
2022-10-30T21:16:22.635Z,91759.06
2022-10-30T21:18:52.399Z,91760.28
2022-10-30T21:21:24.344Z,91751.50
2022-10-30T21:23:54.763Z,91754.97
2022-10-30T21:26:21.043Z,91762.31
2022-10-30T21:28:47.388Z,91760.47
2022-10-30T21:31:13.702Z,91757.78
2022-10-30T21:33:39.998Z,91758.22
2022-10-30T21:36:11.976Z,91762.19
2022-10-30T21:38:39.287Z,91759.63
2022-10-30T21:41:05.625Z,91761.31
2022-10-30T21:43:31.920Z,91751.38
2022-10-30T21:45:58.215Z,91748.97
2022-10-30T21:48:27.921Z,91747.44
2022-10-30T21:50:54.184Z,91747.00
2022-10-30T21:53:20.457Z,91747.00
2022-10-30T21:55:46.780Z,91747.28
2022-10-30T21:58:13.066Z,91739.53
2022-10-30T22:00:39.367Z,91745.31
2022-10-30T22:03:05.670Z,91739.28
2022-10-30T22:05:32.081Z,91740.38
2022-10-30T22:07:58.585Z,91737.81
2022-10-30T22:10:25.008Z,91738.41
2022-10-30T22:12:51.288Z,91739.53
2022-10-30T22:15:17.597Z,91744.31
2022-10-30T22:17:43.895Z,91745.00
2022-10-30T22:20:10.395Z,91743.72
2022-10-30T22:22:36.690Z,91745.22
2022-10-30T22:25:03.040Z,91741.34
2022-10-30T22:27:29.307Z,91742.38
2022-10-30T22:29:55.718Z,91732.81
2022-10-30T22:32:22.899Z,91735.88
2022-10-30T22:34:49.223Z,91738.84
2022-10-30T22:37:15.496Z,91743.56
2022-10-30T22:39:41.794Z,91736.16
2022-10-30T22:42:08.062Z,91727.88
2022-10-30T22:44:34.355Z,91741.66
2022-10-30T22:47:00.618Z,91733.94
2022-10-30T22:49:26.886Z,91732.41
2022-10-30T22:51:53.204Z,91730.69
2022-10-30T22:54:19.483Z,91727.31
2022-10-30T22:56:45.766Z,91722.41
2022-10-30T22:59:12.358Z,91727.44
2022-10-30T23:01:38.794Z,91726.91
2022-10-30T23:04:05.427Z,91726.78
2022-10-30T23:06:31.707Z,91727.22
2022-10-30T23:08:58.535Z,91728.03
2022-10-30T23:11:24.825Z,91720.59
2022-10-30T23:13:51.251Z,91725.81
2022-10-30T23:16:18.195Z,91726.22
2022-10-30T23:18:44.739Z,91725.75
2022-10-30T23:21:12.427Z,91716.50
2022-10-30T23:23:38.806Z,91712.47
2022-10-30T23:26:09.392Z,91716.97
2022-10-30T23:28:35.670Z,91710.94
2022-10-30T23:31:08.588Z,91714.16
2022-10-30T23:33:34.891Z,91711.19
2022-10-30T23:36:01.469Z,91714.16
2022-10-30T23:38:27.751Z,91710.78
2022-10-30T23:40:54.024Z,91710.34
2022-10-30T23:43:20.304Z,91708.19
2022-10-30T23:45:46.586Z,91711.44
2022-10-30T23:48:12.963Z,91701.63
2022-10-30T23:50:39.242Z,91702.94
2022-10-30T23:53:05.521Z,91710.50
2022-10-30T23:55:31.795Z,91714.56
2022-10-30T23:57:58.476Z,91709.22
